createdAt,value
2019-01-27T15:33:51.969Z,51.20
2019-01-27T15:36:22.189Z,47.10
2019-01-27T15:38:52.352Z,47.50
2019-01-27T15:41:22.164Z,47.10
2019-01-27T15:43:52.281Z,46.90
2019-01-27T15:46:22.912Z,49.30
2019-01-27T15:49:11.936Z,51.40
2019-01-27T15:51:42.236Z,51.10
2019-01-27T15:54:12.999Z,51.10
2019-01-27T15:56:43.008Z,50.90
2019-01-27T15:59:14.121Z,49.80
2019-01-27T16:01:44.229Z,49.30
2019-01-27T16:04:14.225Z,49.10
2019-01-27T16:06:44.082Z,49.00
2019-01-27T16:09:13.908Z,49.00
2019-01-27T16:11:43.824Z,49.00
2019-01-27T16:14:13.806Z,49.30
2019-01-27T16:16:43.731Z,49.40
2019-01-27T16:19:14.291Z,49.60
2019-01-27T16:21:44.145Z,49.70
2019-01-27T16:24:28.045Z,49.60
2019-01-27T16:26:57.865Z,49.70
2019-01-27T16:29:55.542Z,49.70
2019-01-27T16:32:44.701Z,49.50
2019-01-27T16:35:18.472Z,49.60
2019-01-27T16:37:48.426Z,49.70
2019-01-27T16:40:18.256Z,49.70
2019-01-27T16:42:48.167Z,49.70
2019-01-27T16:45:18.026Z,49.60
2019-01-27T16:47:47.941Z,50.00
2019-01-27T16:50:17.900Z,50.30
2019-01-27T16:52:47.749Z,50.30
2019-01-27T16:55:17.947Z,50.20
2019-01-27T16:57:47.786Z,50.30
2019-01-27T17:00:23.273Z,50.40
2019-01-27T17:02:53.133Z,50.60
2019-01-27T17:05:23.193Z,50.80
2019-01-27T17:07:54.679Z,51.50
2019-01-27T17:10:24.976Z,50.20
2019-01-27T17:12:54.812Z,50.50
2019-01-27T17:15:24.555Z,50.70
2019-01-27T17:17:54.292Z,50.90
2019-01-27T17:20:26.250Z,51.10
2019-01-27T17:22:56.089Z,51.20
2019-01-27T17:25:26.029Z,50.90
2019-01-27T17:27:55.892Z,50.70
2019-01-27T17:30:26.388Z,50.50
2019-01-27T17:32:56.125Z,50.40
2019-01-27T17:35:26.101Z,50.20
2019-01-27T17:37:55.871Z,49.20
2019-01-27T17:40:25.689Z,48.60
2019-01-27T17:42:56.458Z,48.80
2019-01-27T17:45:26.609Z,49.00
2019-01-27T17:47:57.414Z,49.00
2019-01-27T17:50:28.348Z,48.90
2019-01-27T17:52:58.063Z,49.00
2019-01-27T17:55:43.901Z,49.10
2019-01-27T17:58:43.242Z,49.00
2019-01-27T18:01:30.713Z,48.90
2019-01-27T18:04:16.851Z,48.90
2019-01-27T18:07:23.705Z,49.00
2019-01-27T18:10:10.679Z,48.50
2019-01-27T18:13:01.996Z,48.60
2019-01-27T18:15:31.902Z,49.20
2019-01-27T18:18:01.717Z,48.80
2019-01-27T18:20:31.436Z,48.80
2019-01-27T18:23:02.051Z,48.30
2019-01-27T18:25:31.905Z,48.20
2019-01-27T18:28:01.721Z,48.30
2019-01-27T18:30:31.629Z,48.50
2019-01-27T18:33:01.355Z,48.70
2019-01-27T18:35:31.857Z,47.40
2019-01-27T18:38:02.441Z,47.10
2019-01-27T18:40:32.404Z,47.70
2019-01-27T18:43:02.124Z,48.00
2019-01-27T18:45:31.891Z,48.90
2019-01-27T18:48:01.636Z,49.40
2019-01-27T18:50:32.362Z,50.70
2019-01-27T18:53:29.646Z,50.90
2019-01-27T18:56:36.709Z,50.40
2019-01-27T18:59:25.368Z,50.40
2019-01-27T19:02:17.249Z,50.70
2019-01-27T19:05:05.865Z,50.60
2019-01-27T19:07:45.424Z,50.90
2019-01-27T19:10:30.287Z,50.90
2019-01-27T19:13:09.849Z,50.90
2019-01-27T19:15:53.223Z,51.40
2019-01-27T19:19:16.342Z,51.20
2019-01-27T19:22:13.872Z,51.10
2019-01-27T19:25:01.352Z,51.10
2019-01-27T19:27:40.113Z,51.00
2019-01-27T19:30:48.086Z,51.10
2019-01-27T19:34:06.267Z,51.20
2019-01-27T19:37:04.596Z,51.10
2019-01-27T19:39:56.188Z,51.00
2019-01-27T19:42:33.297Z,51.10
2019-01-27T19:45:20.445Z,50.70
2019-01-27T19:48:06.812Z,50.20
2019-01-27T19:50:53.670Z,50.30
2019-01-27T19:53:40.061Z,50.40
2019-01-27T19:56:28.603Z,50.30
2019-01-27T19:59:17.224Z,50.50
2019-01-27T20:02:05.779Z,50.50
2019-01-27T20:05:00.959Z,50.30
2019-01-27T20:07:41.492Z,50.20
2019-01-27T20:10:23.633Z,50.10
2019-01-27T20:13:15.283Z,50.10
2019-01-27T20:16:07.252Z,51.90
2019-01-27T20:18:54.568Z,51.70
2019-01-27T20:21:53.271Z,51.90
2019-01-27T20:24:40.034Z,51.90
2019-01-27T20:27:28.664Z,52.00
2019-01-27T20:30:21.849Z,52.40
2019-01-27T20:33:16.612Z,52.10
2019-01-27T20:36:08.172Z,52.00
2019-01-27T20:38:55.697Z,52.10
2019-01-27T20:41:53.532Z,51.80
2019-01-27T20:44:35.051Z,51.50
2019-01-27T20:47:22.513Z,50.90
2019-01-27T20:50:12.058Z,51.10
2019-01-27T20:52:51.343Z,50.90
2019-01-27T20:55:38.714Z,50.60
2019-01-27T20:58:25.928Z,50.70
2019-01-27T21:01:23.515Z,50.20
2019-01-27T21:04:08.481Z,50.20
2019-01-27T21:07:03.293Z,50.00
2019-01-27T21:09:49.417Z,49.80
2019-01-27T21:12:37.924Z,49.60
2019-01-27T21:15:37.663Z,49.50
2019-01-27T21:18:20.354Z,49.30
2019-01-27T21:20:53.600Z,49.10
2019-01-27T21:23:21.391Z,48.90
2019-01-27T21:25:51.060Z,48.80
2019-01-27T21:28:20.764Z,48.60
2019-01-27T21:30:50.438Z,48.60
2019-01-27T21:33:20.109Z,49.00
2019-01-27T21:35:49.916Z,48.30
2019-01-27T21:38:19.622Z,48.20
2019-01-27T21:40:49.279Z,48.10
2019-01-27T21:43:19.027Z,48.00
2019-01-27T21:45:48.698Z,47.90
2019-01-27T21:48:18.366Z,48.00
2019-01-27T21:50:48.053Z,47.70
2019-01-27T21:53:17.726Z,47.60
2019-01-27T21:55:47.378Z,47.60
2019-01-27T21:58:17.045Z,47.50
2019-01-27T22:01:06.393Z,47.40
2019-01-27T22:03:36.432Z,47.20
2019-01-27T22:06:06.405Z,47.20
2019-01-27T22:08:36.139Z,47.20
2019-01-27T22:11:05.809Z,47.10
2019-01-27T22:13:35.528Z,47.00
2019-01-27T22:16:05.190Z,47.00
2019-01-27T22:18:34.880Z,46.90
2019-01-27T22:21:04.656Z,46.80
2019-01-27T22:23:34.318Z,46.70
2019-01-27T22:26:03.982Z,46.70
2019-01-27T22:28:33.791Z,46.70
2019-01-27T22:31:03.857Z,46.60
2019-01-27T22:33:33.516Z,46.50
2019-01-27T22:36:03.215Z,46.40
2019-01-27T22:38:32.968Z,46.50
2019-01-27T22:41:02.651Z,46.50
2019-01-27T22:43:32.305Z,46.40
2019-01-27T22:46:21.019Z,46.30
2019-01-27T22:48:50.853Z,46.30
2019-01-27T22:51:20.547Z,46.20
2019-01-27T22:53:50.233Z,46.30
2019-01-27T22:56:19.900Z,46.20
2019-01-27T22:58:49.577Z,46.20
2019-01-27T23:01:20.053Z,46.10
2019-01-27T23:03:52.411Z,46.10
2019-01-27T23:06:22.056Z,46.00
2019-01-27T23:08:51.806Z,46.00
2019-01-27T23:11:21.480Z,46.00
2019-01-27T23:13:51.147Z,45.90
2019-01-27T23:16:20.835Z,45.90
2019-01-27T23:18:50.673Z,45.80
2019-01-27T23:21:20.323Z,45.70
2019-01-27T23:23:49.987Z,45.70
2019-01-27T23:26:19.652Z,45.70
2019-01-27T23:28:49.384Z,46.30
2019-01-27T23:31:19.055Z,45.60
2019-01-27T23:33:48.724Z,45.60
2019-01-27T23:36:18.416Z,45.60
2019-01-27T23:38:48.183Z,45.50
2019-01-27T23:41:17.854Z,45.50
2019-01-27T23:43:47.517Z,45.40
2019-01-27T23:46:17.176Z,45.40
2019-01-27T23:48:46.920Z,45.50
2019-01-27T23:51:16.631Z,45.40
2019-01-27T23:53:46.303Z,45.40
2019-01-27T23:56:15.965Z,45.30
2019-01-27T23:58:45.699Z,45.20
